Time;durP1;ratioP1;P1;durP2;ratioP2;P2;SDS_P1;SDS_P2;PMS_P1;PMS_P2;Temp;Humidity;BMP_temperature;BMP_pressure;BME280_temperature;BME280_humidity;BME280_pressure;Samples;Min_cycle;Max_cycle;Signal;HPM_P1;HPM_P2
2021/06/11 00:01:05;;;;;;;5.13;2.95;;;;;;;16.89;66.00;100021.53;5032828;28;20026;-68
2021/06/11 00:03:30;;;;;;;3.55;2.75;;;;;;;16.87;66.18;100015.44;5032828;28;20037;-69
2021/06/11 00:05:56;;;;;;;5.03;2.80;;;;;;;16.86;66.68;100016.41;5032715;28;20503;-68
2021/06/11 00:08:21;;;;;;;4.65;3.05;;;;;;;16.87;66.72;100012.78;5033080;28;20453;-68
2021/06/11 00:10:47;;;;;;;7.20;2.70;;;;;;;16.88;66.29;100019.81;5032668;28;20029;-67
2021/06/11 00:13:12;;;;;;;6.13;3.05;;;;;;;16.88;66.61;100015.34;5032826;28;20400;-68
2021/06/11 00:15:38;;;;;;;5.82;4.00;;;;;;;16.83;66.90;100013.97;5031171;28;20342;-67
2021/06/11 00:18:04;;;;;;;8.85;3.20;;;;;;;16.74;67.12;100013.63;5032858;28;20029;-68
2021/06/11 00:20:29;;;;;;;4.95;3.03;;;;;;;16.68;67.15;100011.41;5032835;28;20053;-67
2021/06/11 00:22:55;;;;;;;3.65;2.88;;;;;;;16.71;67.56;100018.31;5032771;28;20029;-67
2021/06/11 00:25:23;;;;;;;4.43;2.95;;;;;;;16.69;67.30;100025.59;5032387;28;20033;-67
2021/06/11 00:27:49;;;;;;;4.45;3.05;;;;;;;16.64;67.61;100020.56;5032472;28;20092;-69
2021/06/11 00:30:16;;;;;;;5.13;3.10;;;;;;;16.62;67.97;100016.31;5030418;28;20171;-68
2021/06/11 00:32:41;;;;;;;8.18;4.20;;;;;;;16.56;68.60;100014.06;5031098;28;20121;-68
2021/06/11 00:35:09;;;;;;;7.22;3.97;;;;;;;16.54;68.36;100019.53;5032451;28;20117;-68
2021/06/11 00:37:34;;;;;;;5.20;3.40;;;;;;;16.51;68.90;100017.94;5032138;28;20033;-68
2021/06/11 00:40:00;;;;;;;12.60;4.05;;;;;;;16.49;68.48;100011.88;5032431;28;20494;-67
2021/06/11 00:42:27;;;;;;;7.18;3.22;;;;;;;16.44;68.91;100015.78;5032201;28;20052;-69
2021/06/11 00:44:53;;;;;;;7.82;4.47;;;;;;;16.42;69.18;100018.56;5032495;28;20037;-69
2021/06/11 00:47:18;;;;;;;10.30;4.10;;;;;;;16.42;69.40;100017.72;5032049;28;20057;-67
2021/06/11 00:49:44;;;;;;;5.97;4.00;;;;;;;16.41;69.49;100011.53;5032350;28;20088;-69
2021/06/11 00:52:09;;;;;;;7.40;4.13;;;;;;;16.41;69.40;100016.00;5032334;28;20036;-67
2021/06/11 00:54:35;;;;;;;6.78;4.10;;;;;;;16.38;69.57;100014.41;5031992;28;20116;-66
2021/06/11 00:57:01;;;;;;;5.30;4.13;;;;;;;16.37;69.81;100020.72;5030146;28;20447;-69
2021/06/11 00:59:27;;;;;;;8.15;3.80;;;;;;;16.41;69.65;100013.34;5031940;28;20419;-69
2021/06/11 01:01:53;;;;;;;7.20;4.70;;;;;;;16.44;69.46;100007.81;5008364;28;20104;-69
2021/06/11 01:04:18;;;;;;;8.23;3.83;;;;;;;16.45;69.59;100007.69;5031853;28;20160;-68
2021/06/11 01:06:46;;;;;;;6.47;3.92;;;;;;;16.46;69.38;100012.06;5032015;28;20507;-68
2021/06/11 01:09:12;;;;;;;8.43;4.15;;;;;;;16.46;69.45;100005.88;5030735;28;20041;-68
2021/06/11 01:11:40;;;;;;;6.80;4.90;;;;;;;16.45;69.60;100002.38;5031974;28;20040;-68
2021/06/11 01:14:07;;;;;;;5.50;4.38;;;;;;;16.41;70.10;100003.53;5031859;28;20037;-68
2021/06/11 01:16:33;;;;;;;10.07;4.15;;;;;;;16.35;70.39;100008.47;5031294;28;20037;-68
2021/06/11 01:18:58;;;;;;;7.20;4.15;;;;;;;16.26;70.78;100004.63;5031464;28;20041;-68
2021/06/11 01:21:29;;;;;;;8.18;4.50;;;;;;;16.26;70.69;100004.63;5032009;28;20037;-68
2021/06/11 01:24:16;;;;;;;8.23;4.68;;;;;;;16.29;70.53;100004.41;5031573;28;20034;-68
2021/06/11 01:26:48;;;;;;;6.07;4.10;;;;;;;16.31;70.30;100006.00;5031135;28;20083;-67
2021/06/11 01:29:18;;;;;;;6.03;4.80;;;;;;;16.31;70.44;100006.00;5031420;28;20038;-67
2021/06/11 01:31:58;;;;;;;8.20;5.82;;;;;;;16.25;70.95;100006.44;5031483;28;20041;-67
2021/06/11 01:34:32;;;;;;;9.13;5.35;;;;;;;16.17;71.14;100003.47;5031030;28;20792;-67
2021/06/11 01:37:03;;;;;;;9.75;5.47;;;;;;;16.19;70.97;100013.97;5029626;28;20037;-67
2021/06/11 01:39:29;;;;;;;8.32;4.57;;;;;;;16.22;71.00;100014.63;5031839;28;20052;-68
2021/06/11 01:41:56;;;;;;;7.78;5.05;;;;;;;16.24;70.96;100009.19;5030475;28;20045;-68
2021/06/11 01:44:23;;;;;;;6.32;5.15;;;;;;;16.24;70.84;100018.03;5033930;28;20057;-68
2021/06/11 01:46:54;;;;;;;8.73;5.50;;;;;;;16.23;70.79;100015.47;5033770;28;20056;-67
2021/06/11 01:49:20;;;;;;;5.78;4.50;;;;;;;16.23;70.93;100012.81;5035210;28;20120;-67
2021/06/11 01:51:47;;;;;;;7.57;4.50;;;;;;;16.23;70.75;100015.47;5031883;28;20037;-67
2021/06/11 01:54:13;;;;;;;12.23;5.80;;;;;;;16.19;71.12;100020.16;5031231;28;20046;-68
2021/06/11 01:56:41;;;;;;;16.90;5.13;;;;;;;16.16;70.87;100022.19;5030627;28;20128;-67
2021/06/11 01:59:07;;;;;;;6.50;5.35;;;;;;;16.12;71.10;100020.69;5030800;28;20076;-66
2021/06/11 02:01:33;;;;;;;10.05;5.80;;;;;;;16.04;71.32;100022.03;5030886;28;20056;-67
2021/06/11 02:04:00;;;;;;;7.35;4.72;;;;;;;15.96;71.94;100019.06;5029749;28;20033;-67
2021/06/11 02:06:27;;;;;;;6.35;5.07;;;;;;;15.91;71.93;100020.34;5030907;28;20034;-67
2021/06/11 02:08:54;;;;;;;5.45;4.35;;;;;;;15.88;72.38;100021.41;5031430;28;20060;-67
2021/06/11 02:11:20;;;;;;;6.63;4.97;;;;;;;15.83;72.38;100015.56;5030589;28;20037;-67
2021/06/11 02:13:48;;;;;;;6.53;4.65;;;;;;;15.79;72.39;100017.53;5030967;28;20111;-68
2021/06/11 02:16:14;;;;;;;5.22;4.40;;;;;;;15.79;72.54;100016.69;5030494;28;20053;-67
2021/06/11 02:18:41;;;;;;;5.45;3.63;;;;;;;15.77;72.49;100018.59;5030606;28;20060;-67
2021/06/11 02:21:08;;;;;;;6.75;5.32;;;;;;;15.74;72.63;100022.31;5029907;28;20038;-67
2021/06/11 02:23:34;;;;;;;7.07;5.60;;;;;;;15.74;72.84;100024.97;5030402;28;20546;-67
2021/06/11 02:26:03;;;;;;;7.15;5.68;;;;;;;15.72;73.05;100020.72;5030549;28;20392;-67
2021/06/11 02:28:29;;;;;;;7.65;4.57;;;;;;;15.70;72.98;100015.50;5030180;28;20493;-68
2021/06/11 02:30:57;;;;;;;6.55;5.35;;;;;;;15.70;73.09;100023.47;5031085;28;20034;-68
2021/06/11 02:33:22;;;;;;;10.57;6.13;;;;;;;15.67;73.17;100016.53;5030805;28;20029;-68
2021/06/11 02:35:48;;;;;;;10.32;5.60;;;;;;;15.62;73.58;100015.97;5030016;28;20029;-66
2021/06/11 02:38:13;;;;;;;6.25;5.10;;;;;;;15.60;73.31;100019.69;5029779;28;20021;-67
2021/06/11 02:40:39;;;;;;;9.70;5.55;;;;;;;15.63;73.22;100019.50;5030245;28;20520;-66
2021/06/11 02:43:09;;;;;;;7.72;4.85;;;;;;;15.64;72.99;100013.22;5030017;28;20041;-67
2021/06/11 02:45:38;;;;;;;10.50;6.05;;;;;;;15.60;73.33;100014.38;5029874;28;20030;-67
2021/06/11 02:48:22;;;;;;;6.25;5.25;;;;;;;15.57;73.30;100017.25;5029780;28;20029;-67
2021/06/11 02:50:56;;;;;;;7.20;5.10;;;;;;;15.52;73.47;100014.03;5030618;28;20050;-69
2021/06/11 02:53:28;;;;;;;10.27;6.07;;;;;;;15.48;73.51;100009.88;5031366;28;20056;-69
2021/06/11 02:56:19;;;;;;;10.05;6.28;;;;;;;15.47;73.74;100011.69;5032517;28;20037;-67
2021/06/11 02:59:04;;;;;;;7.35;6.13;;;;;;;15.48;73.61;100004.56;5028768;28;20045;-67
2021/06/11 03:01:35;;;;;;;10.65;6.60;;;;;;;15.48;73.73;100007.22;5028793;28;20064;-67
2021/06/11 03:04:02;;;;;;;7.03;5.88;;;;;;;15.44;73.51;100001.28;5028496;28;20069;-67
2021/06/11 03:06:30;;;;;;;6.30;5.03;;;;;;;15.42;73.72;100003.16;5032203;28;20067;-67
2021/06/11 03:08:57;;;;;;;8.10;5.68;;;;;;;15.38;73.67;99997.22;5033412;28;20034;-67
2021/06/11 03:11:30;;;;;;;10.93;6.25;;;;;;;15.35;74.08;100007.19;5032608;28;20033;-67
2021/06/11 03:13:56;;;;;;;9.25;6.50;;;;;;;15.32;73.97;99997.59;5031799;28;20025;-67
2021/06/11 03:16:26;;;;;;;6.82;5.63;;;;;;;15.31;74.04;99997.69;5030807;28;20029;-67
2021/06/11 03:19:08;;;;;;;8.88;6.25;;;;;;;15.31;74.06;99995.03;5032666;28;20116;-67
2021/06/11 03:21:39;;;;;;;11.18;6.18;;;;;;;15.30;74.28;99996.00;5033231;28;20053;-67
2021/06/11 03:24:15;;;;;;;7.90;6.85;;;;;;;15.27;74.18;99999.72;5029847;28;20116;-67
2021/06/11 03:26:46;;;;;;;10.00;6.07;;;;;;;15.29;74.07;99994.31;5029586;28;20577;-67
2021/06/11 03:29:15;;;;;;;7.70;4.95;;;;;;;15.27;74.01;99994.41;5028307;28;20045;-67
2021/06/11 03:31:47;;;;;;;8.20;6.60;;;;;;;15.24;74.04;100000.78;5029451;28;20030;-67
2021/06/11 03:34:20;;;;;;;9.38;5.35;;;;;;;15.25;74.17;99994.50;5029387;28;20660;-66
2021/06/11 03:36:46;;;;;;;8.43;5.28;;;;;;;15.25;74.29;99998.97;5028945;28;20053;-67
2021/06/11 03:39:29;;;;;;;6.82;5.50;;;;;;;15.30;73.89;100006.63;5029722;28;20029;-67
2021/06/11 03:41:54;;;;;;;7.50;5.25;;;;;;;15.31;73.55;100003.00;5029522;28;20049;-67
2021/06/11 03:44:21;;;;;;;9.93;5.63;;;;;;;15.29;73.79;100002.28;5029301;28;20083;-67
2021/06/11 03:46:47;;;;;;;10.38;5.18;;;;;;;15.26;73.97;100003.34;5029335;28;20033;-67
2021/06/11 03:49:14;;;;;;;11.40;6.05;;;;;;;15.26;74.02;100003.34;5029156;28;20508;-67
2021/06/11 03:51:42;;;;;;;5.80;5.13;;;;;;;15.25;74.15;99996.31;5029077;28;20394;-67
2021/06/11 03:54:12;;;;;;;9.15;5.38;;;;;;;15.27;73.95;100001.53;5029056;28;20057;-67
2021/06/11 03:56:38;;;;;;;11.95;6.90;;;;;;;15.31;73.67;100001.22;5028724;28;20029;-67
2021/06/11 03:59:08;;;;;;;10.55;5.85;;;;;;;15.31;73.93;100000.34;5028802;28;20041;-67
2021/06/11 04:01:40;;;;;;;9.77;6.78;;;;;;;15.30;73.93;99998.66;5028590;28;20030;-67
2021/06/11 04:04:06;;;;;;;8.43;6.95;;;;;;;15.30;73.89;100001.31;5028926;28;20041;-68
2021/06/11 04:06:39;;;;;;;9.55;7.20;;;;;;;15.29;74.05;100008.44;5028966;28;20044;-68
2021/06/11 04:09:08;;;;;;;9.23;5.78;;;;;;;15.31;74.03;100005.66;5027617;28;20030;-67
2021/06/11 04:11:41;;;;;;;8.52;6.43;;;;;;;15.33;74.00;100004.63;5028636;28;20069;-67
2021/06/11 04:14:07;;;;;;;9.60;6.97;;;;;;;15.33;74.11;100001.09;5029095;28;20033;-67
2021/06/11 04:16:45;;;;;;;8.48;7.05;;;;;;;15.33;73.86;99998.44;5028832;28;20029;-69
2021/06/11 04:19:17;;;;;;;9.18;6.05;;;;;;;15.32;74.24;99996.75;5029143;28;20424;-67
2021/06/11 04:21:46;;;;;;;8.00;6.32;;;;;;;15.32;74.31;99994.09;5029308;28;20039;-68
2021/06/11 04:24:12;;;;;;;6.95;6.20;;;;;;;15.33;74.15;99991.31;5029398;28;20057;-68
2021/06/11 04:26:40;;;;;;;8.80;5.85;;;;;;;15.37;73.78;99997.31;5028873;28;20057;-68
2021/06/11 04:29:08;;;;;;;8.02;5.93;;;;;;;15.39;74.11;99995.41;5028744;28;20037;-68
2021/06/11 04:31:34;;;;;;;7.80;7.00;;;;;;;15.40;74.10;100000.59;5028983;28;20040;-68
2021/06/11 04:34:00;;;;;;;9.35;6.22;;;;;;;15.44;74.12;99998.63;5028659;28;20420;-69
2021/06/11 04:36:27;;;;;;;12.05;7.00;;;;;;;15.49;74.09;99998.31;5029014;28;20025;-70
2021/06/11 04:39:02;;;;;;;9.18;7.28;;;;;;;15.54;73.82;100002.34;5028655;28;20033;-69
2021/06/11 04:41:29;;;;;;;9.02;7.32;;;;;;;15.59;73.77;99997.59;5028806;28;20044;-69
2021/06/11 04:43:59;;;;;;;9.07;6.32;;;;;;;15.66;73.70;99995.38;5029525;28;20036;-67
2021/06/11 04:46:25;;;;;;;13.18;7.32;;;;;;;15.74;73.64;99992.25;5032171;28;20029;-68
2021/06/11 04:48:50;;;;;;;11.00;7.30;;;;;;;15.83;73.68;99991.63;5031983;28;20077;-68
2021/06/11 04:51:16;;;;;;;7.70;6.88;;;;;;;15.92;73.26;99990.13;5032109;28;20049;-68
2021/06/11 04:53:42;;;;;;;19.45;8.50;;;;;;;16.00;73.21;99988.66;5032083;28;20481;-68
2021/06/11 04:56:08;;;;;;;10.88;7.80;;;;;;;16.09;73.02;99989.81;5031610;28;20113;-68
2021/06/11 04:58:37;;;;;;;9.73;6.75;;;;;;;16.21;73.08;99982.81;5031605;28;20117;-68
2021/06/11 05:01:04;;;;;;;8.45;7.18;;;;;;;16.31;72.68;99968.75;5030618;28;20691;-68
2021/06/11 05:03:29;;;;;;;10.80;7.28;;;;;;;16.48;72.61;99962.25;5031967;28;20035;-68
2021/06/11 05:05:55;;;;;;;9.45;7.80;;;;;;;16.66;72.12;99962.75;5031920;28;20030;-68
2021/06/11 05:08:20;;;;;;;16.58;8.15;;;;;;;16.90;71.83;99961.97;5031589;28;20049;-68
2021/06/11 05:10:45;;;;;;;10.98;8.27;;;;;;;17.14;71.30;99959.31;5031842;28;20525;-68
2021/06/11 05:13:11;;;;;;;14.10;9.27;;;;;;;17.45;70.42;99947.25;5031206;28;20557;-69
2021/06/11 05:15:36;;;;;;;10.65;9.18;;;;;;;17.73;69.81;99955.81;5031935;28;20161;-69
2021/06/11 05:18:06;;;;;;;10.75;8.05;;;;;;;17.93;69.01;99948.97;5032181;28;20121;-68
2021/06/11 05:20:32;;;;;;;10.07;8.13;;;;;;;18.10;67.97;99953.00;5031194;28;20401;-68
2021/06/11 05:22:58;;;;;;;12.75;9.65;;;;;;;18.30;67.48;99952.28;5032069;28;20033;-67
2021/06/11 05:25:23;;;;;;;13.98;8.63;;;;;;;18.53;67.11;99955.78;5030196;28;20029;-68
2021/06/11 05:27:49;;;;;;;13.95;10.63;;;;;;;18.80;66.32;99955.44;5032291;28;20109;-69
2021/06/11 05:30:16;;;;;;;21.10;11.88;;;;;;;18.95;65.67;99961.38;5031874;28;20129;-69
2021/06/11 05:32:41;;;;;;;15.05;10.45;;;;;;;19.17;65.28;99956.91;5031827;28;20033;-69
2021/06/11 05:35:07;;;;;;;17.67;11.68;;;;;;;19.40;64.19;99955.88;5031380;28;20109;-68
2021/06/11 05:37:32;;;;;;;19.25;11.73;;;;;;;19.66;63.61;99950.16;5030661;28;20037;-69
2021/06/11 05:39:57;;;;;;;12.48;10.10;;;;;;;20.03;62.77;99947.03;5032136;28;20561;-68
2021/06/11 05:42:23;;;;;;;16.30;10.48;;;;;;;20.42;61.12;99953.44;5032365;28;20049;-70
2021/06/11 05:44:48;;;;;;;15.32;11.95;;;;;;;20.71;60.18;99948.22;5034042;28;20397;-68
2021/06/11 05:47:14;;;;;;;17.23;9.63;;;;;;;20.87;59.27;99952.19;5033398;28;20036;-70
2021/06/11 05:49:39;;;;;;;13.25;10.93;;;;;;;20.93;58.89;99952.50;5034213;28;20417;-70
2021/06/11 05:52:05;;;;;;;11.30;9.93;;;;;;;21.03;58.78;99952.53;5033288;28;20029;-68
2021/06/11 05:54:30;;;;;;;14.18;10.02;;;;;;;21.29;58.09;99954.66;5032952;28;20075;-69
2021/06/11 05:56:59;;;;;;;17.40;11.93;;;;;;;21.57;57.11;99956.53;5032118;28;20033;-68
2021/06/11 05:59:24;;;;;;;13.65;11.15;;;;;;;21.65;56.94;99947.75;5032344;28;20033;-70
2021/06/11 06:01:49;;;;;;;13.90;11.60;;;;;;;21.79;56.72;99951.84;5032033;28;20045;-69
2021/06/11 06:04:15;;;;;;;11.90;10.18;;;;;;;22.06;55.99;99957.31;5031815;28;20178;-69
2021/06/11 06:06:40;;;;;;;13.27;11.23;;;;;;;22.27;55.19;99948.22;5031624;28;20053;-68
2021/06/11 06:09:06;;;;;;;14.95;12.45;;;;;;;22.40;54.73;99950.59;5031464;28;20497;-68
2021/06/11 06:11:31;;;;;;;10.90;9.77;;;;;;;22.47;54.92;99954.34;5031302;28;20033;-68
2021/06/11 06:13:56;;;;;;;13.25;10.80;;;;;;;22.58;54.57;99950.66;5031465;28;20087;-68
2021/06/11 06:16:22;;;;;;;15.45;11.35;;;;;;;22.74;54.18;99958.91;5031400;28;20508;-68
2021/06/11 06:18:47;;;;;;;12.38;10.50;;;;;;;23.07;53.47;99957.47;5031509;28;20041;-69
2021/06/11 06:21:13;;;;;;;15.20;11.77;;;;;;;23.28;52.57;99949.13;5030638;28;20029;-68
2021/06/11 06:23:39;;;;;;;11.23;9.15;;;;;;;23.26;53.01;99947.56;5030446;28;20029;-68
2021/06/11 06:26:04;;;;;;;17.10;11.35;;;;;;;23.21;52.45;99953.41;5030455;28;20030;-68
2021/06/11 06:28:30;;;;;;;19.00;11.63;;;;;;;23.22;52.29;99955.09;5030605;28;20040;-68
2021/06/11 06:30:56;;;;;;;13.80;10.05;;;;;;;23.25;52.52;99954.78;5031450;28;20053;-68
2021/06/11 06:33:21;;;;;;;17.27;12.48;;;;;;;23.30;52.29;99957.03;5030779;28;20140;-69
2021/06/11 06:35:46;;;;;;;17.48;11.98;;;;;;;23.40;52.34;99967.72;5030432;28;20045;-69
2021/06/11 06:38:13;;;;;;;16.90;10.95;;;;;;;23.60;51.42;99966.53;5030682;28;20029;-69
2021/06/11 06:40:39;;;;;;;17.95;11.02;;;;;;;23.72;51.34;99959.06;5032466;28;20037;-69
2021/06/11 06:43:05;;;;;;;15.40;11.95;;;;;;;23.97;50.50;99965.50;5031753;28;20029;-68
2021/06/11 06:45:30;;;;;;;17.50;12.25;;;;;;;24.19;49.65;99962.31;5032085;28;20033;-68
2021/06/11 06:47:55;;;;;;;18.88;12.23;;;;;;;24.35;49.03;99963.41;5031419;28;20072;-69
2021/06/11 06:50:22;;;;;;;15.40;11.75;;;;;;;24.54;48.42;99960.50;5030564;28;20037;-67
2021/06/11 06:52:53;;;;;;;19.35;13.05;;;;;;;24.71;48.15;99957.88;5030196;28;20040;-68
2021/06/11 06:55:18;;;;;;;16.33;10.60;;;;;;;24.85;48.16;99959.94;5030010;28;20044;-68
2021/06/11 06:57:44;;;;;;;16.85;10.95;;;;;;;24.81;47.10;99961.28;5030054;28;20033;-69
2021/06/11 07:00:10;;;;;;;18.42;12.90;;;;;;;24.79;47.38;99960.59;5029892;28;20390;-68
2021/06/11 07:02:36;;;;;;;16.13;11.73;;;;;;;24.62;48.47;99960.53;5030133;28;20025;-70
2021/06/11 07:05:02;;;;;;;20.88;12.18;;;;;;;24.69;48.12;99965.28;5029574;28;20511;-69
2021/06/11 07:07:27;;;;;;;17.17;11.68;;;;;;;24.72;48.23;99959.56;5029587;28;20111;-68
2021/06/11 07:09:53;;;;;;;15.57;12.77;;;;;;;24.82;48.31;99960.28;5029826;28;20472;-68
2021/06/11 07:12:18;;;;;;;16.42;12.70;;;;;;;24.96;47.91;99962.34;5029589;28;21187;-67
2021/06/11 07:14:43;;;;;;;14.25;11.18;;;;;;;25.12;47.76;99964.22;5030001;28;20083;-67
2021/06/11 07:17:09;;;;;;;18.70;12.43;;;;;;;25.17;47.37;99959.22;5029771;28;20053;-68
2021/06/11 07:19:34;;;;;;;13.38;11.98;;;;;;;25.32;46.88;99967.50;5029842;28;20061;-69
2021/06/11 07:21:59;;;;;;;23.10;13.73;;;;;;;25.46;47.01;99960.59;5029990;28;20120;-69
2021/06/11 07:24:25;;;;;;;18.77;14.55;;;;;;;25.41;46.41;99958.41;5029146;28;20033;-68
2021/06/11 07:26:50;;;;;;;16.77;12.77;;;;;;;25.51;45.95;99963.66;5030151;28;20034;-68
2021/06/11 07:29:16;;;;;;;16.10;12.68;;;;;;;25.86;45.52;99950.84;5030587;28;20041;-68
2021/06/11 07:31:41;;;;;;;20.90;14.73;;;;;;;26.12;44.34;99964.16;5030069;28;20040;-67
2021/06/11 07:34:07;;;;;;;14.05;12.23;;;;;;;26.38;43.96;99963.91;5029024;28;20516;-69
2021/06/11 07:36:32;;;;;;;17.67;13.43;;;;;;;26.91;42.99;99959.66;5029998;28;20133;-69
2021/06/11 07:38:58;;;;;;;14.32;12.25;;;;;;;27.66;41.49;99962.75;5030235;28;20035;-69
2021/06/11 07:41:23;;;;;;;16.98;12.15;;;;;;;28.12;40.78;99962.69;5030185;28;20071;-69
2021/06/11 07:43:53;;;;;;;12.30;11.05;;;;;;;28.45;40.17;99966.78;5029581;28;20125;-69
2021/06/11 07:46:19;;;;;;;21.10;10.75;;;;;;;28.76;39.24;99963.00;5029384;28;20029;-69
2021/06/11 07:48:45;;;;;;;17.77;12.57;;;;;;;28.82;38.93;99961.38;5029650;28;20034;-69
2021/06/11 07:51:10;;;;;;;16.27;12.43;;;;;;;28.86;38.78;99963.53;5029334;28;20033;-69
2021/06/11 07:53:36;;;;;;;14.10;12.65;;;;;;;28.73;39.13;99971.53;5029905;28;20041;-69
2021/06/11 07:56:02;;;;;;;14.30;12.90;;;;;;;28.71;39.18;99962.72;5029761;28;20505;-69
2021/06/11 07:58:27;;;;;;;14.27;12.00;;;;;;;28.81;39.14;99970.56;5030066;28;20053;-69
2021/06/11 08:00:53;;;;;;;12.88;11.43;;;;;;;28.67;39.16;99972.25;5030247;28;20033;-70
2021/06/11 08:03:18;;;;;;;13.20;11.88;;;;;;;28.62;39.34;99969.28;5013952;28;20033;-71
2021/06/11 08:05:44;;;;;;;14.93;13.30;;;;;;;28.46;39.85;99970.31;5029889;28;20085;-69
2021/06/11 08:08:09;;;;;;;15.38;12.93;;;;;;;28.33;39.60;99967.38;5029127;28;20040;-68
2021/06/11 08:10:35;;;;;;;20.80;10.95;;;;;;;28.68;39.41;99976.69;5029314;28;20037;-68
2021/06/11 08:13:03;;;;;;;22.50;13.70;;;;;;;28.90;38.77;99973.00;5027904;28;20095;-68
2021/06/11 08:15:28;;;;;;;15.50;13.05;;;;;;;28.80;38.47;99974.34;5029341;28;20088;-68
2021/06/11 08:17:54;;;;;;;16.33;10.95;;;;;;;28.71;39.25;99986.31;5029651;28;20034;-68
2021/06/11 08:20:19;;;;;;;19.48;14.25;;;;;;;29.00;38.77;99988.97;5031834;28;20509;-69
2021/06/11 08:22:45;;;;;;;16.13;13.23;;;;;;;29.24;38.64;99985.13;5034191;28;20037;-69
2021/06/11 08:25:11;;;;;;;17.25;14.50;;;;;;;29.07;38.64;99984.50;5033929;28;20037;-69
2021/06/11 08:27:37;;;;;;;19.45;12.68;;;;;;;28.83;39.67;99985.63;5034345;28;20061;-69
2021/06/11 08:30:04;;;;;;;17.80;12.30;;;;;;;28.71;39.81;99983.59;5034834;28;20041;-68
2021/06/11 08:32:30;;;;;;;17.02;12.30;;;;;;;28.74;39.53;99989.47;5034905;28;20029;-69
2021/06/11 08:34:55;;;;;;;13.15;11.15;;;;;;;28.78;39.74;99985.34;5035253;28;20530;-69
2021/06/11 08:37:23;;;;;;;15.63;12.63;;;;;;;28.44;39.81;99983.19;5033090;28;20045;-69
2021/06/11 08:39:53;;;;;;;20.10;13.98;;;;;;;28.17;40.74;99985.50;5033540;28;20524;-69
2021/06/11 08:42:28;;;;;;;24.90;15.43;;;;;;;27.90;41.03;99986.13;5033710;28;20029;-69
2021/06/11 08:45:04;;;;;;;15.88;12.77;;;;;;;28.05;40.79;99987.81;5032985;28;20030;-68
2021/06/11 08:47:31;;;;;;;14.07;12.52;;;;;;;28.09;40.60;99987.47;5032937;28;20040;-68
2021/06/11 08:49:58;;;;;;;17.10;12.82;;;;;;;28.31;40.30;99991.16;5033611;28;20510;-69
2021/06/11 08:52:24;;;;;;;16.58;13.43;;;;;;;28.65;39.38;99996.06;5033032;28;20038;-69
2021/06/11 08:54:51;;;;;;;18.90;14.98;;;;;;;28.60;39.41;99993.03;5033289;28;20032;-69
2021/06/11 08:57:17;;;;;;;18.20;14.38;;;;;;;28.59;39.55;99997.63;5032559;28;20036;-69
2021/06/11 08:59:46;;;;;;;16.17;12.38;;;;;;;28.64;38.91;99991.63;5032499;28;20175;-68
2021/06/11 09:02:12;;;;;;;15.68;13.63;;;;;;;28.87;38.87;100000.53;5033000;28;20055;-68
2021/06/11 09:04:53;;;;;;;18.50;12.85;;;;;;;29.37;37.29;99999.88;5033335;28;20029;-67
2021/06/11 09:07:27;;;;;;;12.85;11.50;;;;;;;29.85;37.04;99998.25;5032605;28;20029;-68
2021/06/11 09:09:58;;;;;;;16.55;12.20;;;;;;;30.33;36.04;99994.91;5032397;28;20168;-68
2021/06/11 09:12:38;;;;;;;13.85;12.02;;;;;;;30.76;34.93;99989.28;5032315;28;20037;-68
2021/06/11 09:15:12;;;;;;;18.48;12.20;;;;;;;31.13;34.24;99987.97;5032375;28;20393;-68
2021/06/11 09:17:42;;;;;;;20.25;12.07;;;;;;;31.24;33.66;99987.41;5031636;28;20485;-69
2021/06/11 09:20:11;;;;;;;18.35;10.98;;;;;;;31.13;34.21;99990.69;5031943;28;20032;-69
2021/06/11 09:22:38;;;;;;;23.98;12.63;;;;;;;31.36;33.69;99992.25;5030047;28;20371;-69
2021/06/11 09:25:23;;;;;;;16.38;11.73;;;;;;;30.75;34.47;99993.06;5032340;28;20034;-68
2021/06/11 09:27:54;;;;;;;14.13;12.38;;;;;;;30.83;34.41;99997.50;5031329;28;20042;-68
2021/06/11 09:30:23;;;;;;;20.88;12.20;;;;;;;31.38;34.07;99992.84;5030875;28;20053;-69
2021/06/11 09:32:57;;;;;;;16.63;13.27;;;;;;;31.77;33.16;99992.09;5032023;28;20096;-69
2021/06/11 09:35:34;;;;;;;21.90;12.50;;;;;;;32.14;32.64;99998.00;5032074;28;20401;-67
2021/06/11 09:38:10;;;;;;;12.07;10.18;;;;;;;32.47;31.80;99992.50;5031748;28;20034;-68
2021/06/11 09:40:35;;;;;;;20.45;11.88;;;;;;;32.39;32.18;99998.19;5031726;28;20044;-69
2021/06/11 09:43:02;;;;;;;12.75;10.32;;;;;;;32.81;31.44;99990.53;5031965;28;20037;-67
2021/06/11 09:45:28;;;;;;;16.13;10.50;;;;;;;32.84;31.13;99990.09;5031442;28;20052;-68
2021/06/11 09:47:53;;;;;;;11.15;8.50;;;;;;;32.95;30.26;99988.56;5031289;28;20489;-68
2021/06/11 09:50:19;;;;;;;13.18;8.93;;;;;;;33.37;30.68;99986.28;5031492;28;20037;-68
2021/06/11 09:53:13;;;;;;;10.15;8.65;;;;;;;33.58;30.20;99995.25;5026562;28;20394;-69
2021/06/11 09:55:51;;;;;;;8.33;7.47;;;;;;;33.69;29.52;99983.56;5019634;28;20038;-69
2021/06/11 09:58:23;;;;;;;13.05;8.45;;;;;;;33.94;29.17;99981.69;5031029;28;20370;-67
2021/06/11 10:00:52;;;;;;;12.43;9.23;;;;;;;33.73;29.62;99984.81;5030421;28;20033;-68
2021/06/11 10:03:26;;;;;;;22.58;12.38;;;;;;;33.27;30.72;99981.28;5031211;28;20040;-68
2021/06/11 10:05:54;;;;;;;13.13;9.75;;;;;;;32.77;31.43;99978.38;5031075;28;20151;-69
2021/06/11 10:08:21;;;;;;;15.43;10.25;;;;;;;33.03;30.74;99980.19;5030762;28;20041;-69
2021/06/11 10:10:48;;;;;;;19.42;9.38;;;;;;;33.16;30.06;99979.28;5030776;28;20379;-69
2021/06/11 10:13:15;;;;;;;10.48;7.45;;;;;;;33.26;30.16;99987.81;5030481;28;20548;-68
2021/06/11 10:15:42;;;;;;;8.82;7.65;;;;;;;33.39;29.97;99986.06;5030692;28;20433;-68
2021/06/11 10:18:09;;;;;;;24.30;13.50;;;;;;;33.64;29.95;99989.69;5030987;28;20417;-68
2021/06/11 10:20:35;;;;;;;20.98;12.88;;;;;;;33.45;29.98;99983.31;5031307;28;20041;-69
2021/06/11 10:23:03;;;;;;;17.58;10.77;;;;;;;32.18;31.63;99982.91;5029224;28;20040;-68
2021/06/11 10:25:28;;;;;;;10.50;8.95;;;;;;;31.93;31.71;99979.97;5030045;28;20480;-68
2021/06/11 10:27:55;;;;;;;13.65;7.50;;;;;;;31.99;32.09;99991.94;5028951;28;20106;-69
2021/06/11 10:30:25;;;;;;;15.40;8.52;;;;;;;32.53;31.04;99982.66;5029761;28;20148;-68
2021/06/11 10:32:50;;;;;;;9.77;8.68;;;;;;;32.87;30.88;99983.38;5029985;28;20080;-69
2021/06/11 10:35:44;;;;;;;11.20;8.95;;;;;;;32.16;32.22;99987.72;5030220;28;20111;-69
2021/06/11 10:38:28;;;;;;;13.13;9.82;;;;;;;32.70;31.49;99992.03;5029695;28;20029;-69
2021/06/11 10:41:06;;;;;;;11.95;7.53;;;;;;;32.50;31.48;99981.19;5029925;28;20044;-68
2021/06/11 10:43:36;;;;;;;10.32;7.57;;;;;;;31.37;33.13;99980.28;5030254;28;20044;-69
2021/06/11 10:46:03;;;;;;;14.75;6.85;;;;;;;30.49;34.71;99975.53;5025821;28;20055;-68
2021/06/11 10:48:56;;;;;;;13.98;8.43;;;;;;;29.71;36.34;99981.00;5030016;28;20152;-67
2021/06/11 10:51:50;;;;;;;11.63;6.97;;;;;;;29.55;36.45;99967.66;5030116;28;20052;-68
2021/06/11 10:54:15;;;;;;;19.58;8.18;;;;;;;30.83;34.38;99962.13;5030091;28;20366;-68
2021/06/11 10:56:56;;;;;;;12.50;7.80;;;;;;;31.13;33.69;99957.19;5029546;28;20083;-67
2021/06/11 10:59:34;;;;;;;11.82;8.07;;;;;;;30.25;35.36;99967.84;5029717;28;20033;-68
2021/06/11 11:02:00;;;;;;;10.55;8.68;;;;;;;29.89;35.78;99972.38;5029792;28;20405;-67
2021/06/11 11:04:30;;;;;;;8.25;7.32;;;;;;;29.70;36.02;99957.56;5030140;28;20044;-67
2021/06/11 11:06:56;;;;;;;12.55;7.32;;;;;;;29.68;36.05;99956.94;5028159;28;20041;-68
2021/06/11 11:09:21;;;;;;;12.85;6.55;;;;;;;29.49;36.86;99955.69;5030091;28;20060;-68
2021/06/11 11:11:47;;;;;;;13.35;8.07;;;;;;;28.98;37.69;99946.78;5028950;28;20049;-69
2021/06/11 11:14:39;;;;;;;13.32;8.32;;;;;;;28.83;37.53;99942.22;5030275;28;20041;-69
2021/06/11 11:17:05;;;;;;;12.48;7.32;;;;;;;28.76;37.05;99949.44;5028502;28;20493;-69
2021/06/11 11:20:03;;;;;;;11.43;7.65;;;;;;;28.86;37.40;99952.69;5028357;28;20029;-69
2021/06/11 11:22:37;;;;;;;11.75;8.02;;;;;;;28.63;38.01;99950.09;5025860;28;20527;-69
2021/06/11 11:25:14;;;;;;;13.95;9.32;;;;;;;28.70;38.03;99947.50;5028465;28;20049;-69
2021/06/11 11:27:46;;;;;;;18.15;8.63;;;;;;;28.69;37.88;99949.34;5028851;28;20037;-69